Decoded Metar for KAFN (JAFFREY in NH, USA) (IATA:AFN) | Meteo·Mobile Aviation Weather
aviador You're here:

KAFN Decoded Metar

JAFFREY in NH, USA
Report Time2018-08-20 00:52:00
UTC Time2018-08-20 01:26:30
Flight Rules vfr VFR
WindCalm
Visibility9999 m
Phenomena:N/A
Clouds:N/A
Expected CloudBase > 400 ft AGL from Temp-Dew spread
CeilingNone
Temp17°C (ISA +4)
Dew Point16°C (94% RH)
QNH1022 hPa
Density Alt1,447 ft
Elevation1,027 ft
Report Wrong Elevation
Raw Report
KAFN 200052Z AUTO 00000KT 10SM CLR 17/16 A3017 RMK AO2 SLP217
T01670156=

Extra information for KAFN:More info

Metar Taf Metar & Taf Last 4 Metars F.Rules Stats Wind Profile Meteogram Temp Stats Airport Information Weather charts Add Link Nearby VenuesMetar ALERT Operation Metar Decoded Social comments

AIRNAV info for KAFN